sensor_id;sensor_type;location;lat;lon;timestamp;P1;durP1;ratioP1;P2;durP2;ratioP2
13847;SDS011;6994;49.752;6.094;2023-07-20T00:02:20;4.43;;;2.28;;
13847;SDS011;6994;49.752;6.094;2023-07-20T00:04:47;4.82;;;2.53;;
13847;SDS011;6994;49.752;6.094;2023-07-20T00:07:14;2.00;;;1.80;;
13847;SDS011;6994;49.752;6.094;2023-07-20T00:09:42;2.75;;;2.42;;
13847;SDS011;6994;49.752;6.094;2023-07-20T00:12:09;3.05;;;1.95;;
13847;SDS011;6994;49.752;6.094;2023-07-20T00:14:36;2.75;;;2.22;;
13847;SDS011;6994;49.752;6.094;2023-07-20T00:17:04;7.72;;;1.90;;
13847;SDS011;6994;49.752;6.094;2023-07-20T00:19:31;2.22;;;1.70;;
13847;SDS011;6994;49.752;6.094;2023-07-20T00:21:58;2.25;;;1.95;;
13847;SDS011;6994;49.752;6.094;2023-07-20T00:24:26;3.58;;;2.30;;
13847;SDS011;6994;49.752;6.094;2023-07-20T00:26:53;2.87;;;2.20;;
13847;SDS011;6994;49.752;6.094;2023-07-20T00:29:21;1.83;;;1.73;;
13847;SDS011;6994;49.752;6.094;2023-07-20T00:31:48;4.05;;;2.40;;
13847;SDS011;6994;49.752;6.094;2023-07-20T00:34:15;2.00;;;1.85;;
13847;SDS011;6994;49.752;6.094;2023-07-20T00:36:43;2.25;;;2.05;;
13847;SDS011;6994;49.752;6.094;2023-07-20T00:39:11;3.70;;;2.15;;
13847;SDS011;6994;49.752;6.094;2023-07-20T00:41:38;2.05;;;1.80;;
13847;SDS011;6994;49.752;6.094;2023-07-20T00:44:05;2.78;;;2.30;;
13847;SDS011;6994;49.752;6.094;2023-07-20T00:46:32;4.12;;;2.10;;
13847;SDS011;6994;49.752;6.094;2023-07-20T00:48:59;3.65;;;2.33;;
13847;SDS011;6994;49.752;6.094;2023-07-20T00:51:27;3.47;;;2.42;;
13847;SDS011;6994;49.752;6.094;2023-07-20T00:53:54;2.10;;;1.87;;
13847;SDS011;6994;49.752;6.094;2023-07-20T00:56:21;3.60;;;2.15;;
13847;SDS011;6994;49.752;6.094;2023-07-20T00:58:48;3.50;;;2.10;;
13847;SDS011;6994;49.752;6.094;2023-07-20T01:01:16;3.65;;;1.87;;
13847;SDS011;6994;49.752;6.094;2023-07-20T01:03:44;2.20;;;1.62;;
13847;SDS011;6994;49.752;6.094;2023-07-20T01:09:07;4.72;;;2.17;;
13847;SDS011;6994;49.752;6.094;2023-07-20T01:11:43;5.55;;;2.40;;
13847;SDS011;6994;49.752;6.094;2023-07-20T01:14:12;4.03;;;1.92;;
13847;SDS011;6994;49.752;6.094;2023-07-20T01:16:39;2.72;;;1.80;;
13847;SDS011;6994;49.752;6.094;2023-07-20T01:19:07;3.97;;;1.98;;
13847;SDS011;6994;49.752;6.094;2023-07-20T01:21:37;2.92;;;2.60;;
13847;SDS011;6994;49.752;6.094;2023-07-20T01:29:55;2.83;;;1.75;;
13847;SDS011;6994;49.752;6.094;2023-07-20T01:32:36;3.90;;;1.80;;
13847;SDS011;6994;49.752;6.094;2023-07-20T01:35:03;4.07;;;2.40;;
13847;SDS011;6994;49.752;6.094;2023-07-20T01:37:30;3.72;;;2.22;;
13847;SDS011;6994;49.752;6.094;2023-07-20T01:39:58;5.07;;;2.40;;
13847;SDS011;6994;49.752;6.094;2023-07-20T01:42:26;2.37;;;2.12;;
13847;SDS011;6994;49.752;6.094;2023-07-20T01:44:54;4.18;;;2.35;;
13847;SDS011;6994;49.752;6.094;2023-07-20T01:47:21;1.95;;;1.70;;
13847;SDS011;6994;49.752;6.094;2023-07-20T01:49:48;3.90;;;2.17;;
13847;SDS011;6994;49.752;6.094;2023-07-20T01:52:16;3.25;;;2.55;;
13847;SDS011;6994;49.752;6.094;2023-07-20T01:54:43;2.53;;;2.30;;
13847;SDS011;6994;49.752;6.094;2023-07-20T01:57:11;2.35;;;1.95;;
13847;SDS011;6994;49.752;6.094;2023-07-20T01:59:37;4.57;;;1.87;;
13847;SDS011;6994;49.752;6.094;2023-07-20T02:02:04;4.25;;;2.67;;
13847;SDS011;6994;49.752;6.094;2023-07-20T02:04:32;2.40;;;2.20;;
13847;SDS011;6994;49.752;6.094;2023-07-20T02:06:59;2.67;;;2.45;;
13847;SDS011;6994;49.752;6.094;2023-07-20T02:09:26;2.22;;;1.95;;
13847;SDS011;6994;49.752;6.094;2023-07-20T02:11:53;2.65;;;2.05;;
13847;SDS011;6994;49.752;6.094;2023-07-20T02:14:21;3.60;;;1.92;;
13847;SDS011;6994;49.752;6.094;2023-07-20T02:16:49;2.75;;;2.10;;
13847;SDS011;6994;49.752;6.094;2023-07-20T02:19:17;5.80;;;2.47;;
13847;SDS011;6994;49.752;6.094;2023-07-20T02:21:44;9.77;;;2.28;;
13847;SDS011;6994;49.752;6.094;2023-07-20T02:24:11;3.15;;;2.10;;
13847;SDS011;6994;49.752;6.094;2023-07-20T02:26:38;4.00;;;2.40;;
13847;SDS011;6994;49.752;6.094;2023-07-20T02:29:05;4.72;;;2.62;;
13847;SDS011;6994;49.752;6.094;2023-07-20T02:31:32;4.72;;;2.70;;
13847;SDS011;6994;49.752;6.094;2023-07-20T02:34:00;4.18;;;3.20;;
13847;SDS011;6994;49.752;6.094;2023-07-20T02:36:27;3.58;;;2.42;;
13847;SDS011;6994;49.752;6.094;2023-07-20T02:38:54;3.42;;;2.83;;
13847;SDS011;6994;49.752;6.094;2023-07-20T02:41:21;2.92;;;2.62;;
13847;SDS011;6994;49.752;6.094;2023-07-20T02:43:48;3.67;;;2.55;;
13847;SDS011;6994;49.752;6.094;2023-07-20T02:46:16;2.95;;;2.08;;
13847;SDS011;6994;49.752;6.094;2023-07-20T02:48:44;2.53;;;2.20;;
13847;SDS011;6994;49.752;6.094;2023-07-20T02:51:12;5.30;;;2.42;;
13847;SDS011;6994;49.752;6.094;2023-07-20T02:53:40;3.20;;;2.90;;
13847;SDS011;6994;49.752;6.094;2023-07-20T02:56:08;4.82;;;2.67;;
13847;SDS011;6994;49.752;6.094;2023-07-20T02:58:39;2.75;;;1.98;;
13847;SDS011;6994;49.752;6.094;2023-07-20T03:01:04;3.00;;;2.75;;
13847;SDS011;6994;49.752;6.094;2023-07-20T03:03:31;4.05;;;2.47;;
13847;SDS011;6994;49.752;6.094;2023-07-20T03:05:59;4.80;;;2.47;;
13847;SDS011;6994;49.752;6.094;2023-07-20T03:08:26;3.33;;;2.75;;
13847;SDS011;6994;49.752;6.094;2023-07-20T03:10:53;2.40;;;2.20;;
13847;SDS011;6994;49.752;6.094;2023-07-20T03:13:20;5.97;;;2.03;;
13847;SDS011;6994;49.752;6.094;2023-07-20T03:15:47;4.32;;;3.10;;
13847;SDS011;6994;49.752;6.094;2023-07-20T03:18:15;2.65;;;2.20;;
13847;SDS011;6994;49.752;6.094;2023-07-20T03:20:42;5.18;;;2.50;;
13847;SDS011;6994;49.752;6.094;2023-07-20T03:23:09;3.55;;;2.42;;
13847;SDS011;6994;49.752;6.094;2023-07-20T03:25:36;4.72;;;2.03;;
13847;SDS011;6994;49.752;6.094;2023-07-20T03:28:03;4.12;;;2.40;;
13847;SDS011;6994;49.752;6.094;2023-07-20T03:30:31;2.83;;;2.50;;
13847;SDS011;6994;49.752;6.094;2023-07-20T03:32:59;6.70;;;2.55;;
13847;SDS011;6994;49.752;6.094;2023-07-20T03:35:27;2.97;;;2.12;;
13847;SDS011;6994;49.752;6.094;2023-07-20T03:37:55;5.10;;;2.15;;
13847;SDS011;6994;49.752;6.094;2023-07-20T03:40:23;3.10;;;2.35;;
13847;SDS011;6994;49.752;6.094;2023-07-20T03:42:51;3.78;;;2.60;;
13847;SDS011;6994;49.752;6.094;2023-07-20T03:45:18;2.97;;;2.42;;
13847;SDS011;6994;49.752;6.094;2023-07-20T03:47:45;3.28;;;2.55;;
13847;SDS011;6994;49.752;6.094;2023-07-20T03:50:12;3.83;;;2.97;;
13847;SDS011;6994;49.752;6.094;2023-07-20T03:52:39;6.03;;;2.28;;
13847;SDS011;6994;49.752;6.094;2023-07-20T03:55:07;3.70;;;2.15;;
13847;SDS011;6994;49.752;6.094;2023-07-20T03:57:34;6.40;;;3.40;;
13847;SDS011;6994;49.752;6.094;2023-07-20T04:00:02;5.07;;;3.22;;
13847;SDS011;6994;49.752;6.094;2023-07-20T04:02:30;5.03;;;2.50;;
13847;SDS011;6994;49.752;6.094;2023-07-20T04:04:57;4.35;;;2.15;;
13847;SDS011;6994;49.752;6.094;2023-07-20T04:07:24;4.22;;;2.42;;
13847;SDS011;6994;49.752;6.094;2023-07-20T04:09:51;3.75;;;2.60;;
13847;SDS011;6994;49.752;6.094;2023-07-20T04:12:19;3.28;;;2.50;;
13847;SDS011;6994;49.752;6.094;2023-07-20T04:14:46;3.95;;;2.62;;
13847;SDS011;6994;49.752;6.094;2023-07-20T04:17:13;9.35;;;2.65;;
13847;SDS011;6994;49.752;6.094;2023-07-20T04:19:40;4.28;;;3.53;;
13847;SDS011;6994;49.752;6.094;2023-07-20T04:22:07;8.38;;;3.10;;
13847;SDS011;6994;49.752;6.094;2023-07-20T04:24:35;4.57;;;2.97;;
13847;SDS011;6994;49.752;6.094;2023-07-20T04:27:02;3.87;;;2.75;;
13847;SDS011;6994;49.752;6.094;2023-07-20T04:29:29;3.53;;;2.72;;
13847;SDS011;6994;49.752;6.094;2023-07-20T04:31:57;3.70;;;2.62;;
13847;SDS011;6994;49.752;6.094;2023-07-20T04:34:24;3.35;;;2.25;;
13847;SDS011;6994;49.752;6.094;2023-07-20T04:36:51;5.12;;;3.20;;
13847;SDS011;6994;49.752;6.094;2023-07-20T04:39:19;3.35;;;2.30;;
13847;SDS011;6994;49.752;6.094;2023-07-20T04:41:47;3.37;;;2.67;;
13847;SDS011;6994;49.752;6.094;2023-07-20T04:44:14;3.42;;;2.92;;
13847;SDS011;6994;49.752;6.094;2023-07-20T04:46:41;6.97;;;2.70;;
13847;SDS011;6994;49.752;6.094;2023-07-20T04:49:08;2.72;;;2.47;;
13847;SDS011;6994;49.752;6.094;2023-07-20T04:51:35;4.95;;;3.40;;
13847;SDS011;6994;49.752;6.094;2023-07-20T04:54:03;6.97;;;3.22;;
13847;SDS011;6994;49.752;6.094;2023-07-20T04:56:30;6.10;;;3.20;;
13847;SDS011;6994;49.752;6.094;2023-07-20T04:58:57;6.57;;;2.20;;
13847;SDS011;6994;49.752;6.094;2023-07-20T05:01:24;3.42;;;2.55;;
13847;SDS011;6994;49.752;6.094;2023-07-20T05:03:52;6.70;;;3.22;;
13847;SDS011;6994;49.752;6.094;2023-07-20T05:06:20;5.65;;;2.80;;
13847;SDS011;6994;49.752;6.094;2023-07-20T05:08:47;3.95;;;3.03;;
13847;SDS011;6994;49.752;6.094;2023-07-20T05:11:15;5.85;;;2.75;;
13847;SDS011;6994;49.752;6.094;2023-07-20T05:13:43;3.83;;;3.12;;
13847;SDS011;6994;49.752;6.094;2023-07-20T05:16:11;3.00;;;2.40;;
13847;SDS011;6994;49.752;6.094;2023-07-20T05:18:38;6.80;;;2.55;;
13847;SDS011;6994;49.752;6.094;2023-07-20T05:21:05;3.33;;;2.60;;
13847;SDS011;6994;49.752;6.094;2023-07-20T05:23:32;5.20;;;3.42;;
13847;SDS011;6994;49.752;6.094;2023-07-20T05:25:59;3.58;;;3.05;;
13847;SDS011;6994;49.752;6.094;2023-07-20T05:28:27;2.97;;;2.25;;
13847;SDS011;6994;49.752;6.094;2023-07-20T05:30:54;4.15;;;3.00;;
13847;SDS011;6994;49.752;6.094;2023-07-20T05:33:21;4.55;;;3.80;;
13847;SDS011;6994;49.752;6.094;2023-07-20T05:35:48;3.83;;;2.87;;
13847;SDS011;6994;49.752;6.094;2023-07-20T05:38:15;5.85;;;2.97;;
13847;SDS011;6994;49.752;6.094;2023-07-20T05:40:44;4.10;;;3.70;;
13847;SDS011;6994;49.752;6.094;2023-07-20T05:43:11;7.43;;;3.22;;
13847;SDS011;6994;49.752;6.094;2023-07-20T05:45:42;5.05;;;3.30;;
13847;SDS011;6994;49.752;6.094;2023-07-20T05:48:09;7.18;;;3.00;;
13847;SDS011;6994;49.752;6.094;2023-07-20T05:50:43;3.22;;;2.92;;
13847;SDS011;6994;49.752;6.094;2023-07-20T05:53:10;6.10;;;2.87;;
13847;SDS011;6994;49.752;6.094;2023-07-20T05:55:37;10.02;;;2.90;;
13847;SDS011;6994;49.752;6.094;2023-07-20T05:58:04;6.20;;;3.45;;
13847;SDS011;6994;49.752;6.094;2023-07-20T06:00:31;5.65;;;3.28;;
13847;SDS011;6994;49.752;6.094;2023-07-20T06:02:58;5.25;;;4.75;;
13847;SDS011;6994;49.752;6.094;2023-07-20T06:05:26;7.93;;;3.92;;
13847;SDS011;6994;49.752;6.094;2023-07-20T06:07:53;4.05;;;3.35;;
13847;SDS011;6994;49.752;6.094;2023-07-20T06:10:20;4.72;;;3.53;;
13847;SDS011;6994;49.752;6.094;2023-07-20T06:12:48;4.00;;;3.08;;
13847;SDS011;6994;49.752;6.094;2023-07-20T06:15:26;4.00;;;3.17;;
13847;SDS011;6994;49.752;6.094;2023-07-20T06:17:53;5.35;;;3.10;;
13847;SDS011;6994;49.752;6.094;2023-07-20T06:20:19;4.25;;;3.47;;
13847;SDS011;6994;49.752;6.094;2023-07-20T06:22:47;4.78;;;3.90;;
13847;SDS011;6994;49.752;6.094;2023-07-20T06:25:14;3.72;;;3.33;;
13847;SDS011;6994;49.752;6.094;2023-07-20T06:27:42;3.83;;;2.65;;
13847;SDS011;6994;49.752;6.094;2023-07-20T06:30:08;4.30;;;2.72;;
13847;SDS011;6994;49.752;6.094;2023-07-20T06:32:35;5.37;;;3.08;;
13847;SDS011;6994;49.752;6.094;2023-07-20T06:35:03;5.07;;;2.90;;
13847;SDS011;6994;49.752;6.094;2023-07-20T06:37:30;5.32;;;3.60;;
13847;SDS011;6994;49.752;6.094;2023-07-20T06:39:58;4.03;;;3.30;;
13847;SDS011;6994;49.752;6.094;2023-07-20T06:42:26;5.25;;;3.08;;
13847;SDS011;6994;49.752;6.094;2023-07-20T06:44:54;5.65;;;2.80;;
13847;SDS011;6994;49.752;6.094;2023-07-20T06:47:21;8.15;;;2.70;;
13847;SDS011;6994;49.752;6.094;2023-07-20T06:49:48;4.20;;;3.20;;
13847;SDS011;6994;49.752;6.094;2023-07-20T06:52:15;3.40;;;2.80;;
13847;SDS011;6994;49.752;6.094;2023-07-20T06:54:43;4.72;;;2.75;;
13847;SDS011;6994;49.752;6.094;2023-07-20T06:57:10;4.43;;;2.78;;
13847;SDS011;6994;49.752;6.094;2023-07-20T06:59:37;5.25;;;2.72;;
13847;SDS011;6994;49.752;6.094;2023-07-20T07:02:04;3.20;;;2.42;;
13847;SDS011;6994;49.752;6.094;2023-07-20T07:04:31;5.28;;;3.00;;
13847;SDS011;6994;49.752;6.094;2023-07-20T07:06:59;7.15;;;2.72;;
13847;SDS011;6994;49.752;6.094;2023-07-20T07:09:27;5.03;;;2.53;;
13847;SDS011;6994;49.752;6.094;2023-07-20T07:11:55;3.25;;;2.50;;
13847;SDS011;6994;49.752;6.094;2023-07-20T07:14:23;3.85;;;2.78;;
13847;SDS011;6994;49.752;6.094;2023-07-20T07:16:51;4.40;;;2.28;;
13847;SDS011;6994;49.752;6.094;2023-07-20T07:19:18;5.55;;;2.87;;
13847;SDS011;6994;49.752;6.094;2023-07-20T07:21:46;5.93;;;3.40;;
13847;SDS011;6994;49.752;6.094;2023-07-20T07:24:14;3.55;;;2.83;;
13847;SDS011;6994;49.752;6.094;2023-07-20T07:26:42;4.40;;;2.62;;
13847;SDS011;6994;49.752;6.094;2023-07-20T07:29:09;3.58;;;2.78;;
13847;SDS011;6994;49.752;6.094;2023-07-20T07:31:36;5.07;;;2.90;;
13847;SDS011;6994;49.752;6.094;2023-07-20T07:34:03;2.75;;;2.55;;
13847;SDS011;6994;49.752;6.094;2023-07-20T07:36:31;4.93;;;3.08;;
13847;SDS011;6994;49.752;6.094;2023-07-20T07:38:58;4.80;;;2.75;;
13847;SDS011;6994;49.752;6.094;2023-07-20T07:41:25;5.85;;;2.50;;
13847;SDS011;6994;49.752;6.094;2023-07-20T07:43:52;4.75;;;3.35;;
13847;SDS011;6994;49.752;6.094;2023-07-20T07:46:19;4.28;;;2.62;;
13847;SDS011;6994;49.752;6.094;2023-07-20T07:48:47;5.28;;;2.37;;
13847;SDS011;6994;49.752;6.094;2023-07-20T07:51:15;4.95;;;3.12;;
13847;SDS011;6994;49.752;6.094;2023-07-20T07:53:42;3.85;;;2.78;;
13847;SDS011;6994;49.752;6.094;2023-07-20T07:56:10;4.97;;;2.50;;
13847;SDS011;6994;49.752;6.094;2023-07-20T07:58:37;6.28;;;3.17;;
13847;SDS011;6994;49.752;6.094;2023-07-20T08:01:04;4.55;;;2.60;;
13847;SDS011;6994;49.752;6.094;2023-07-20T08:03:31;5.82;;;3.30;;
13847;SDS011;6994;49.752;6.094;2023-07-20T08:05:58;4.37;;;2.75;;
13847;SDS011;6994;49.752;6.094;2023-07-20T08:08:26;4.90;;;3.30;;
13847;SDS011;6994;49.752;6.094;2023-07-20T08:10:53;4.78;;;3.00;;
13847;SDS011;6994;49.752;6.094;2023-07-20T08:13:20;5.03;;;3.00;;
13847;SDS011;6994;49.752;6.094;2023-07-20T08:15:49;5.20;;;2.90;;
13847;SDS011;6994;49.752;6.094;2023-07-20T08:18:14;4.00;;;3.08;;
13847;SDS011;6994;49.752;6.094;2023-07-20T08:20:45;4.28;;;2.85;;
13847;SDS011;6994;49.752;6.094;2023-07-20T08:23:13;3.28;;;2.97;;
13847;SDS011;6994;49.752;6.094;2023-07-20T08:25:40;3.03;;;2.25;;
13847;SDS011;6994;49.752;6.094;2023-07-20T08:28:07;3.05;;;2.08;;
13847;SDS011;6994;49.752;6.094;2023-07-20T08:30:41;3.37;;;2.67;;
13847;SDS011;6994;49.752;6.094;2023-07-20T08:33:15;5.70;;;2.90;;
13847;SDS011;6994;49.752;6.094;2023-07-20T08:35:42;5.68;;;2.83;;
13847;SDS011;6994;49.752;6.094;2023-07-20T08:38:09;4.93;;;2.22;;
13847;SDS011;6994;49.752;6.094;2023-07-20T08:40:39;4.78;;;2.53;;
13847;SDS011;6994;49.752;6.094;2023-07-20T08:43:06;5.05;;;2.37;;
13847;SDS011;6994;49.752;6.094;2023-07-20T08:45:33;4.55;;;2.37;;
13847;SDS011;6994;49.752;6.094;2023-07-20T08:48:01;3.85;;;2.20;;
13847;SDS011;6994;49.752;6.094;2023-07-20T08:50:30;3.37;;;2.00;;
13847;SDS011;6994;49.752;6.094;2023-07-20T08:52:57;3.80;;;2.25;;
13847;SDS011;6994;49.752;6.094;2023-07-20T08:55:27;3.20;;;2.10;;
13847;SDS011;6994;49.752;6.094;2023-07-20T08:57:55;8.18;;;2.58;;
13847;SDS011;6994;49.752;6.094;2023-07-20T09:00:22;2.40;;;1.80;;
13847;SDS011;6994;49.752;6.094;2023-07-20T09:02:49;5.00;;;2.22;;
13847;SDS011;6994;49.752;6.094;2023-07-20T09:05:16;3.55;;;2.35;;
13847;SDS011;6994;49.752;6.094;2023-07-20T09:07:44;3.50;;;1.90;;
13847;SDS011;6994;49.752;6.094;2023-07-20T09:10:12;2.30;;;2.00;;
13847;SDS011;6994;49.752;6.094;2023-07-20T09:12:40;4.12;;;2.08;;
13847;SDS011;6994;49.752;6.094;2023-07-20T09:15:07;3.20;;;2.00;;
13847;SDS011;6994;49.752;6.094;2023-07-20T09:17:34;2.92;;;1.80;;
13847;SDS011;6994;49.752;6.094;2023-07-20T09:20:04;3.70;;;2.12;;
13847;SDS011;6994;49.752;6.094;2023-07-20T09:22:38;3.67;;;1.90;;
13847;SDS011;6994;49.752;6.094;2023-07-20T09:25:06;3.58;;;2.80;;
13847;SDS011;6994;49.752;6.094;2023-07-20T09:27:37;3.78;;;2.03;;
13847;SDS011;6994;49.752;6.094;2023-07-20T09:30:04;4.10;;;2.60;;
13847;SDS011;6994;49.752;6.094;2023-07-20T09:32:31;3.20;;;2.42;;
13847;SDS011;6994;49.752;6.094;2023-07-20T09:34:58;2.47;;;1.65;;
13847;SDS011;6994;49.752;6.094;2023-07-20T09:37:26;4.10;;;1.75;;
13847;SDS011;6994;49.752;6.094;2023-07-20T09:39:53;3.87;;;1.98;;
13847;SDS011;6994;49.752;6.094;2023-07-20T09:42:21;5.28;;;2.30;;
13847;SDS011;6994;49.752;6.094;2023-07-20T09:44:47;3.47;;;1.87;;
13847;SDS011;6994;49.752;6.094;2023-07-20T09:47:21;2.33;;;1.90;;
13847;SDS011;6994;49.752;6.094;2023-07-20T09:49:42;1.80;;;1.48;;
13847;SDS011;6994;49.752;6.094;2023-07-20T09:52:09;3.67;;;1.40;;
13847;SDS011;6994;49.752;6.094;2023-07-20T09:54:39;2.50;;;1.92;;
13847;SDS011;6994;49.752;6.094;2023-07-20T09:57:07;2.85;;;1.70;;
13847;SDS011;6994;49.752;6.094;2023-07-20T09:59:34;2.40;;;1.83;;
13847;SDS011;6994;49.752;6.094;2023-07-20T10:02:02;2.17;;;1.60;;
13847;SDS011;6994;49.752;6.094;2023-07-20T10:04:29;2.25;;;1.40;;
13847;SDS011;6994;49.752;6.094;2023-07-20T10:06:58;2.85;;;2.20;;
13847;SDS011;6994;49.752;6.094;2023-07-20T10:09:25;2.67;;;1.87;;
13847;SDS011;6994;49.752;6.094;2023-07-20T10:11:53;2.55;;;1.73;;
13847;SDS011;6994;49.752;6.094;2023-07-20T10:14:21;2.15;;;1.50;;
13847;SDS011;6994;49.752;6.094;2023-07-20T10:16:51;3.42;;;1.67;;
13847;SDS011;6994;49.752;6.094;2023-07-20T10:19:23;2.53;;;1.55;;
13847;SDS011;6994;49.752;6.094;2023-07-20T10:22:07;1.55;;;1.45;;
13847;SDS011;6994;49.752;6.094;2023-07-20T10:24:34;1.85;;;1.70;;
13847;SDS011;6994;49.752;6.094;2023-07-20T10:27:02;2.73;;;1.63;;
13847;SDS011;6994;49.752;6.094;2023-07-20T10:29:29;4.07;;;1.67;;
13847;SDS011;6994;49.752;6.094;2023-07-20T10:31:56;1.37;;;1.27;;
13847;SDS011;6994;49.752;6.094;2023-07-20T10:34:23;2.05;;;1.35;;
13847;SDS011;6994;49.752;6.094;2023-07-20T10:36:50;1.48;;;1.30;;
13847;SDS011;6994;49.752;6.094;2023-07-20T10:41:50;2.17;;;1.77;;
13847;SDS011;6994;49.752;6.094;2023-07-20T10:44:19;2.12;;;1.60;;
13847;SDS011;6994;49.752;6.094;2023-07-20T10:46:45;1.50;;;1.40;;
13847;SDS011;6994;49.752;6.094;2023-07-20T10:49:12;1.80;;;1.40;;
13847;SDS011;6994;49.752;6.094;2023-07-20T10:51:40;1.77;;;1.25;;
13847;SDS011;6994;49.752;6.094;2023-07-20T10:56:47;1.95;;;1.27;;
13847;SDS011;6994;49.752;6.094;2023-07-20T10:59:18;3.12;;;1.80;;
13847;SDS011;6994;49.752;6.094;2023-07-20T11:01:44;2.17;;;1.10;;
13847;SDS011;6994;49.752;6.094;2023-07-20T11:04:11;1.27;;;1.15;;
13847;SDS011;6994;49.752;6.094;2023-07-20T11:06:42;3.78;;;1.40;;
13847;SDS011;6994;49.752;6.094;2023-07-20T11:09:14;1.67;;;1.27;;
13847;SDS011;6994;49.752;6.094;2023-07-20T11:11:42;1.65;;;1.40;;
13847;SDS011;6994;49.752;6.094;2023-07-20T11:14:31;1.70;;;1.60;;
13847;SDS011;6994;49.752;6.094;2023-07-20T11:21:44;1.40;;;1.30;;
13847;SDS011;6994;49.752;6.094;2023-07-20T11:24:11;1.70;;;1.02;;
13847;SDS011;6994;49.752;6.094;2023-07-20T11:26:42;1.60;;;0.98;;
13847;SDS011;6994;49.752;6.094;2023-07-20T11:29:09;1.05;;;0.95;;
13847;SDS011;6994;49.752;6.094;2023-07-20T11:31:37;3.00;;;0.88;;
13847;SDS011;6994;49.752;6.094;2023-07-20T11:34:03;1.45;;;1.05;;
13847;SDS011;6994;49.752;6.094;2023-07-20T11:36:30;1.42;;;0.93;;
13847;SDS011;6994;49.752;6.094;2023-07-20T11:38:58;1.27;;;0.98;;
13847;SDS011;6994;49.752;6.094;2023-07-20T11:41:26;1.75;;;1.25;;
13847;SDS011;6994;49.752;6.094;2023-07-20T11:43:54;2.65;;;1.60;;
13847;SDS011;6994;49.752;6.094;2023-07-20T11:46:22;2.05;;;1.08;;
13847;SDS011;6994;49.752;6.094;2023-07-20T11:48:55;1.12;;;1.10;;
13847;SDS011;6994;49.752;6.094;2023-07-20T11:51:17;1.40;;;1.15;;
13847;SDS011;6994;49.752;6.094;2023-07-20T11:53:45;1.35;;;1.10;;
13847;SDS011;6994;49.752;6.094;2023-07-20T11:56:12;1.52;;;1.02;;
13847;SDS011;6994;49.752;6.094;2023-07-20T11:58:43;2.45;;;1.33;;
13847;SDS011;6994;49.752;6.094;2023-07-20T12:01:09;1.70;;;1.20;;
13847;SDS011;6994;49.752;6.094;2023-07-20T12:03:37;2.33;;;1.35;;
13847;SDS011;6994;49.752;6.094;2023-07-20T12:06:07;1.05;;;1.05;;
13847;SDS011;6994;49.752;6.094;2023-07-20T12:08:34;1.00;;;0.90;;
13847;SDS011;6994;49.752;6.094;2023-07-20T12:11:01;1.60;;;1.50;;
13847;SDS011;6994;49.752;6.094;2023-07-20T12:13:38;0.80;;;0.80;;
13847;SDS011;6994;49.752;6.094;2023-07-20T12:16:11;2.65;;;1.05;;
13847;SDS011;6994;49.752;6.094;2023-07-20T12:18:38;0.93;;;0.93;;
13847;SDS011;6994;49.752;6.094;2023-07-20T12:21:06;2.20;;;0.95;;
13847;SDS011;6994;49.752;6.094;2023-07-20T12:23:36;1.15;;;1.00;;
13847;SDS011;6994;49.752;6.094;2023-07-20T12:26:02;1.12;;;1.00;;
13847;SDS011;6994;49.752;6.094;2023-07-20T12:28:30;1.08;;;1.05;;
13847;SDS011;6994;49.752;6.094;2023-07-20T12:30:57;1.08;;;1.05;;
13847;SDS011;6994;49.752;6.094;2023-07-20T12:33:24;1.55;;;1.10;;
13847;SDS011;6994;49.752;6.094;2023-07-20T12:35:51;1.02;;;0.90;;
13847;SDS011;6994;49.752;6.094;2023-07-20T12:38:18;1.08;;;1.00;;
13847;SDS011;6994;49.752;6.094;2023-07-20T12:40:46;0.80;;;0.80;;
13847;SDS011;6994;49.752;6.094;2023-07-20T12:43:13;0.85;;;0.85;;
13847;SDS011;6994;49.752;6.094;2023-07-20T12:45:41;1.73;;;0.93;;
13847;SDS011;6994;49.752;6.094;2023-07-20T12:48:09;1.00;;;0.90;;
13847;SDS011;6994;49.752;6.094;2023-07-20T12:50:37;1.23;;;0.90;;
13847;SDS011;6994;49.752;6.094;2023-07-20T12:53:04;0.93;;;0.93;;
13847;SDS011;6994;49.752;6.094;2023-07-20T12:55:31;2.20;;;1.08;;
13847;SDS011;6994;49.752;6.094;2023-07-20T12:57:58;1.10;;;0.80;;
13847;SDS011;6994;49.752;6.094;2023-07-20T13:00:26;1.25;;;1.00;;
13847;SDS011;6994;49.752;6.094;2023-07-20T13:02:54;0.70;;;0.70;;
13847;SDS011;6994;49.752;6.094;2023-07-20T13:05:22;4.22;;;0.90;;
13847;SDS011;6994;49.752;6.094;2023-07-20T13:07:49;2.12;;;1.00;;
13847;SDS011;6994;49.752;6.094;2023-07-20T13:10:17;0.93;;;0.80;;
13847;SDS011;6994;49.752;6.094;2023-07-20T13:12:44;0.70;;;0.70;;
13847;SDS011;6994;49.752;6.094;2023-07-20T13:15:11;1.37;;;0.68;;
13847;SDS011;6994;49.752;6.094;2023-07-20T13:17:38;1.65;;;0.80;;
13847;SDS011;6994;49.752;6.094;2023-07-20T13:20:06;1.90;;;1.00;;
13847;SDS011;6994;49.752;6.094;2023-07-20T13:22:33;1.98;;;0.95;;
13847;SDS011;6994;49.752;6.094;2023-07-20T13:25:00;0.95;;;0.70;;
13847;SDS011;6994;49.752;6.094;2023-07-20T13:27:27;1.10;;;0.90;;
13847;SDS011;6994;49.752;6.094;2023-07-20T13:29:54;0.82;;;0.77;;
13847;SDS011;6994;49.752;6.094;2023-07-20T13:32:22;1.00;;;1.00;;
13847;SDS011;6994;49.752;6.094;2023-07-20T13:34:49;1.12;;;1.02;;
13847;SDS011;6994;49.752;6.094;2023-07-20T13:37:16;2.05;;;0.95;;
13847;SDS011;6994;49.752;6.094;2023-07-20T13:39:44;0.93;;;0.77;;
13847;SDS011;6994;49.752;6.094;2023-07-20T13:42:12;2.28;;;0.80;;
13847;SDS011;6994;49.752;6.094;2023-07-20T13:44:40;0.90;;;0.90;;
13847;SDS011;6994;49.752;6.094;2023-07-20T13:47:06;0.77;;;0.77;;
13847;SDS011;6994;49.752;6.094;2023-07-20T13:49:34;0.85;;;0.85;;
13847;SDS011;6994;49.752;6.094;2023-07-20T13:52:01;1.50;;;1.05;;
13847;SDS011;6994;49.752;6.094;2023-07-20T13:54:28;1.10;;;0.93;;
13847;SDS011;6994;49.752;6.094;2023-07-20T13:56:55;2.08;;;0.73;;
13847;SDS011;6994;49.752;6.094;2023-07-20T13:59:23;1.08;;;0.90;;
13847;SDS011;6994;49.752;6.094;2023-07-20T14:01:50;1.73;;;0.80;;
13847;SDS011;6994;49.752;6.094;2023-07-20T14:04:17;1.98;;;0.93;;
13847;SDS011;6994;49.752;6.094;2023-07-20T14:06:44;0.90;;;0.90;;
13847;SDS011;6994;49.752;6.094;2023-07-20T14:09:14;0.80;;;0.80;;
13847;SDS011;6994;49.752;6.094;2023-07-20T14:11:41;1.05;;;0.90;;
13847;SDS011;6994;49.752;6.094;2023-07-20T14:14:08;1.95;;;0.70;;
13847;SDS011;6994;49.752;6.094;2023-07-20T14:16:35;2.05;;;0.90;;
13847;SDS011;6994;49.752;6.094;2023-07-20T14:19:03;1.33;;;0.95;;
13847;SDS011;6994;49.752;6.094;2023-07-20T14:21:30;1.00;;;0.80;;
13847;SDS011;6994;49.752;6.094;2023-07-20T14:23:57;0.70;;;0.70;;
13847;SDS011;6994;49.752;6.094;2023-07-20T14:26:24;1.65;;;0.70;;
13847;SDS011;6994;49.752;6.094;2023-07-20T14:28:52;0.80;;;0.80;;
13847;SDS011;6994;49.752;6.094;2023-07-20T14:31:20;0.82;;;0.65;;
13847;SDS011;6994;49.752;6.094;2023-07-20T14:33:48;0.82;;;0.80;;
13847;SDS011;6994;49.752;6.094;2023-07-20T14:36:15;1.33;;;0.70;;
13847;SDS011;6994;49.752;6.094;2023-07-20T14:38:43;0.82;;;0.65;;
13847;SDS011;6994;49.752;6.094;2023-07-20T14:41:11;1.62;;;0.80;;
13847;SDS011;6994;49.752;6.094;2023-07-20T14:43:38;0.70;;;0.70;;
13847;SDS011;6994;49.752;6.094;2023-07-20T14:46:05;1.60;;;0.55;;
13847;SDS011;6994;49.752;6.094;2023-07-20T14:48:32;1.15;;;0.80;;
13847;SDS011;6994;49.752;6.094;2023-07-20T14:50:59;0.80;;;0.70;;
13847;SDS011;6994;49.752;6.094;2023-07-20T14:53:27;1.45;;;0.90;;
13847;SDS011;6994;49.752;6.094;2023-07-20T14:55:58;1.55;;;0.50;;
13847;SDS011;6994;49.752;6.094;2023-07-20T14:58:21;0.73;;;0.73;;
13847;SDS011;6994;49.752;6.094;2023-07-20T15:00:48;0.98;;;0.60;;
13847;SDS011;6994;49.752;6.094;2023-07-20T15:03:15;0.82;;;0.60;;
13847;SDS011;6994;49.752;6.094;2023-07-20T15:05:43;0.77;;;0.75;;
13847;SDS011;6994;49.752;6.094;2023-07-20T15:08:11;1.00;;;0.88;;
13847;SDS011;6994;49.752;6.094;2023-07-20T15:10:38;0.90;;;0.90;;
13847;SDS011;6994;49.752;6.094;2023-07-20T15:13:05;1.50;;;0.80;;
13847;SDS011;6994;49.752;6.094;2023-07-20T15:15:32;1.45;;;1.17;;
13847;SDS011;6994;49.752;6.094;2023-07-20T15:17:59;0.77;;;0.73;;
13847;SDS011;6994;49.752;6.094;2023-07-20T15:20:27;0.70;;;0.70;;
13847;SDS011;6994;49.752;6.094;2023-07-20T15:22:54;0.85;;;0.80;;